Time;durP1;ratioP1;P1;durP2;ratioP2;P2;SDS_P1;SDS_P2;PMS_P1;PMS_P2;Temp;Humidity;BMP_temperature;BMP_pressure;BME280_temperature;BME280_humidity;BME280_pressure;Samples;Min_cycle;Max_cycle;Signal;HPM_P1;HPM_P2
2023/04/24 00:01:24;;;;;;;1999.90;999.90;;;11.20;99.90;;;;;;5059287;28;20083;-75
2023/04/24 00:03:50;;;;;;;1999.90;999.90;;;11.10;99.90;;;;;;5059356;28;20021;-70
2023/04/24 00:06:16;;;;;;;1999.90;999.90;;;11.10;99.90;;;;;;5059215;28;20052;-75
2023/04/24 00:08:42;;;;;;;1999.90;999.90;;;11.10;99.90;;;;;;5059132;28;20017;-75
2023/04/24 00:11:09;;;;;;;1999.90;999.90;;;11.00;99.90;;;;;;5059365;28;20044;-75
2023/04/24 00:13:35;;;;;;;1999.90;999.90;;;11.10;99.90;;;;;;5059494;28;20025;-71
2023/04/24 00:16:00;;;;;;;1999.90;999.90;;;11.00;99.90;;;;;;5059113;28;20111;-71
2023/04/24 00:18:26;;;;;;;1999.90;999.90;;;11.10;99.90;;;;;;5058258;28;20036;-75
2023/04/24 00:20:52;;;;;;;1999.90;999.90;;;11.10;99.90;;;;;;5059109;28;20025;-75
2023/04/24 00:23:17;;;;;;;1999.90;999.90;;;11.10;99.90;;;;;;5059269;28;20487;-75
2023/04/24 00:25:43;;;;;;;1999.90;999.90;;;11.10;99.90;;;;;;5059020;28;20032;-71
2023/04/24 00:28:09;;;;;;;1999.90;999.90;;;11.00;99.90;;;;;;5063302;28;20023;-71
2023/04/24 00:30:35;;;;;;;1999.90;999.90;;;11.00;99.90;;;;;;5078968;28;20024;-70
2023/04/24 00:33:00;;;;;;;1999.90;999.90;;;11.00;99.90;;;;;;5078861;28;20035;-75
2023/04/24 00:35:26;;;;;;;1999.90;999.90;;;10.90;99.90;;;;;;5078997;28;20028;-75
2023/04/24 00:37:51;;;;;;;1999.90;999.90;;;10.80;99.90;;;;;;5079211;28;20407;-75
2023/04/24 00:40:17;;;;;;;1999.90;999.90;;;10.70;99.90;;;;;;5079010;28;20103;-70
2023/04/24 00:42:43;;;;;;;1999.90;999.90;;;10.70;99.90;;;;;;5078978;28;20523;-70
2023/04/24 00:45:09;;;;;;;1999.90;999.90;;;10.70;99.90;;;;;;5079091;28;20048;-70
2023/04/24 00:47:35;;;;;;;1999.90;999.90;;;10.60;99.90;;;;;;5070741;28;20056;-70
2023/04/24 00:50:03;;;;;;;1999.90;999.90;;;10.60;99.90;;;;;;5059009;28;20083;-75
2023/04/24 00:52:31;;;;;;;1999.90;999.90;;;10.60;99.90;;;;;;5058635;28;20500;-75
2023/04/24 00:54:56;;;;;;;1999.90;999.90;;;10.60;99.90;;;;;;5058697;28;20048;-70
2023/04/24 00:57:23;;;;;;;1999.90;999.90;;;10.60;99.90;;;;;;5058851;28;20025;-70
2023/04/24 00:59:50;;;;;;;1999.90;999.90;;;10.50;99.90;;;;;;5059029;28;20032;-75
2023/04/24 01:02:15;;;;;;;1999.90;999.90;;;10.60;99.90;;;;;;5059002;28;20051;-75
2023/04/24 01:04:41;;;;;;;1999.90;999.90;;;10.60;99.90;;;;;;5058853;28;20021;-75
2023/04/24 01:07:10;;;;;;;1999.90;999.90;;;10.60;99.90;;;;;;5058869;28;20446;-70
2023/04/24 01:09:37;;;;;;;1999.90;999.90;;;10.60;99.90;;;;;;5056951;28;20029;-73
2023/04/24 01:12:03;;;;;;;1999.90;999.90;;;10.60;99.90;;;;;;5055546;28;20040;-70
2023/04/24 01:14:30;;;;;;;1999.90;999.90;;;10.60;99.90;;;;;;5055573;28;20033;-70
2023/04/24 01:16:57;;;;;;;1999.90;999.90;;;10.60;99.90;;;;;;5055016;28;20029;-74
2023/04/24 01:19:23;;;;;;;1999.90;999.90;;;10.50;99.90;;;;;;5054287;28;20021;-70
2023/04/24 01:21:52;;;;;;;1999.90;999.90;;;10.50;99.90;;;;;;5055339;28;20029;-74
2023/04/24 01:24:19;;;;;;;1999.90;999.90;;;10.40;99.90;;;;;;5055117;28;20027;-75
2023/04/24 01:26:45;;;;;;;1999.90;999.90;;;10.40;99.90;;;;;;5055362;28;20043;-70
2023/04/24 01:29:11;;;;;;;1999.90;999.90;;;10.40;99.90;;;;;;5049873;28;20036;-70
2023/04/24 01:31:38;;;;;;;1999.90;999.90;;;10.30;99.90;;;;;;5075206;28;20040;-70
2023/04/24 01:34:04;;;;;;;1999.90;999.90;;;10.30;99.90;;;;;;5075040;28;20108;-70
2023/04/24 01:36:32;;;;;;;1999.90;999.90;;;10.20;99.90;;;;;;5074774;28;20107;-74
2023/04/24 01:38:57;;;;;;;1999.90;999.90;;;10.20;99.90;;;;;;5075104;28;20012;-75
2023/04/24 01:41:24;;;;;;;1999.90;999.90;;;10.20;99.90;;;;;;5073660;28;20112;-75
2023/04/24 01:43:50;;;;;;;1999.90;999.90;;;10.20;99.90;;;;;;5075566;28;20017;-70
2023/04/24 01:46:16;;;;;;;1999.90;999.90;;;10.20;99.90;;;;;;5074918;28;20119;-70
2023/04/24 01:48:42;;;;;;;1999.90;999.90;;;10.20;99.90;;;;;;5057412;28;20060;-70
2023/04/24 01:51:08;;;;;;;1999.90;999.90;;;10.20;99.90;;;;;;5054727;28;20060;-75
2023/04/24 01:53:34;;;;;;;1999.90;999.90;;;10.20;99.90;;;;;;5054922;28;20079;-70
2023/04/24 01:56:00;;;;;;;1999.90;999.90;;;10.20;99.90;;;;;;5054783;28;20104;-75
2023/04/24 01:58:27;;;;;;;1999.90;999.90;;;10.20;99.90;;;;;;5055003;28;20516;-70
2023/04/24 02:00:52;;;;;;;1999.90;999.90;;;10.20;99.90;;;;;;5054401;28;20071;-70
2023/04/24 02:03:18;;;;;;;1999.90;999.90;;;10.10;99.90;;;;;;5036607;28;20025;-75
2023/04/24 02:05:45;;;;;;;1999.90;999.90;;;10.10;99.90;;;;;;5054447;28;20029;-74
2023/04/24 02:08:10;;;;;;;1999.90;999.90;;;10.10;99.90;;;;;;5054381;28;20059;-73
2023/04/24 02:10:36;;;;;;;1999.90;999.90;;;10.10;99.90;;;;;;5054478;28;20033;-73
2023/04/24 02:13:02;;;;;;;1999.90;999.90;;;10.00;99.90;;;;;;5054458;28;20105;-73
2023/04/24 02:15:27;;;;;;;1999.90;999.90;;;10.00;99.90;;;;;;5054270;28;20045;-72
2023/04/24 02:17:53;;;;;;;1999.90;999.90;;;10.00;99.90;;;;;;5054338;28;20026;-75
2023/04/24 02:20:19;;;;;;;1999.90;999.90;;;10.00;99.90;;;;;;5035582;28;20403;-71
2023/04/24 02:22:44;;;;;;;1999.90;999.90;;;10.00;99.90;;;;;;5053137;28;20020;-70
2023/04/24 02:25:10;;;;;;;1999.90;999.90;;;10.10;99.90;;;;;;5054259;28;20464;-71
2023/04/24 02:27:36;;;;;;;1999.90;999.90;;;10.00;99.90;;;;;;5054180;28;20543;-70
2023/04/24 02:30:02;;;;;;;1999.90;999.90;;;10.10;99.90;;;;;;5073555;28;20108;-71
2023/04/24 02:32:28;;;;;;;1999.90;999.90;;;10.10;99.90;;;;;;5074078;28;20392;-71
2023/04/24 02:34:54;;;;;;;1999.90;999.90;;;10.10;99.90;;;;;;5074317;28;20031;-71
2023/04/24 02:37:19;;;;;;;1999.90;999.90;;;10.10;99.90;;;;;;5073944;28;20025;-71
2023/04/24 02:39:45;;;;;;;1999.90;999.90;;;10.10;99.90;;;;;;5073940;28;20029;-71
2023/04/24 02:42:11;;;;;;;1999.90;999.90;;;10.10;99.90;;;;;;5073821;28;20103;-71
2023/04/24 02:44:36;;;;;;;1999.90;999.90;;;10.10;99.90;;;;;;5072464;28;20064;-75
2023/04/24 02:47:02;;;;;;;1999.90;999.90;;;10.10;99.90;;;;;;5070238;28;20040;-71
2023/04/24 02:49:28;;;;;;;1999.90;999.90;;;10.20;99.90;;;;;;5053799;28;20036;-70
2023/04/24 02:51:53;;;;;;;1999.90;999.90;;;10.20;99.90;;;;;;5053492;28;20128;-75
2023/04/24 02:54:19;;;;;;;1999.90;999.90;;;10.30;99.90;;;;;;5053629;28;20021;-75
2023/04/24 02:56:44;;;;;;;1999.90;999.90;;;10.30;99.90;;;;;;5053506;28;20032;-71
2023/04/24 02:59:10;;;;;;;1999.90;999.90;;;10.30;99.90;;;;;;5053881;28;20017;-75
2023/04/24 03:01:36;;;;;;;1999.90;999.90;;;10.40;99.90;;;;;;5053580;28;20024;-70
2023/04/24 03:04:02;;;;;;;1999.90;999.90;;;10.50;99.90;;;;;;5053245;28;20092;-71
2023/04/24 03:06:27;;;;;;;1999.90;999.90;;;10.50;99.90;;;;;;5053560;28;20450;-71
2023/04/24 03:08:54;;;;;;;1999.90;999.90;;;10.60;99.90;;;;;;5053322;28;20032;-75
2023/04/24 03:11:20;;;;;;;1999.90;999.90;;;10.70;99.90;;;;;;5053742;28;20037;-75
2023/04/24 03:13:46;;;;;;;1999.90;999.90;;;10.70;99.90;;;;;;5053279;28;20025;-75
2023/04/24 03:16:11;;;;;;;1999.90;999.90;;;10.90;99.90;;;;;;5053044;28;20163;-71
2023/04/24 03:18:37;;;;;;;1999.90;999.90;;;10.90;99.90;;;;;;5052920;28;20039;-70
2023/04/24 03:21:03;;;;;;;1999.90;999.90;;;11.00;99.90;;;;;;5052520;28;20396;-74
2023/04/24 03:23:29;;;;;;;1999.90;999.90;;;11.10;99.90;;;;;;5053228;28;20059;-74
2023/04/24 03:25:54;;;;;;;1999.90;999.90;;;11.20;99.90;;;;;;5052879;28;20029;-75
2023/04/24 03:28:20;;;;;;;1999.90;999.90;;;11.20;99.90;;;;;;5052903;28;20020;-70
2023/04/24 03:30:46;;;;;;;1999.90;999.90;;;11.20;99.90;;;;;;5053041;28;20029;-70
2023/04/24 03:33:11;;;;;;;1999.90;999.90;;;11.20;99.90;;;;;;5052817;28;20103;-70
2023/04/24 03:35:37;;;;;;;1999.90;999.90;;;11.20;99.90;;;;;;5053107;28;20029;-75
2023/04/24 03:38:06;;;;;;;1999.90;999.90;;;11.30;99.90;;;;;;5052890;28;20488;-70
2023/04/24 03:40:33;;;;;;;1999.90;999.90;;;11.30;99.90;;;;;;5052538;28;20059;-75
2023/04/24 03:42:58;;;;;;;1999.90;999.90;;;11.40;99.90;;;;;;5053040;28;20013;-70
2023/04/24 03:45:24;;;;;;;1999.90;999.90;;;11.40;99.90;;;;;;5053114;28;20535;-75
2023/04/24 03:47:50;;;;;;;1999.90;999.90;;;11.50;99.90;;;;;;5052784;28;20025;-71
2023/04/24 03:50:15;;;;;;;1999.90;999.90;;;11.60;99.90;;;;;;5052860;28;20029;-70
2023/04/24 03:52:41;;;;;;;1999.90;999.90;;;11.60;99.90;;;;;;5052593;28;20500;-75
2023/04/24 03:55:07;;;;;;;1999.90;999.90;;;11.70;99.90;;;;;;5052583;28;20071;-75
2023/04/24 03:57:33;;;;;;;1999.90;999.90;;;11.70;99.90;;;;;;5052611;28;20056;-70
2023/04/24 03:59:58;;;;;;;1999.90;999.90;;;11.70;99.90;;;;;;5052837;28;20048;-75
2023/04/24 04:02:24;;;;;;;1999.90;999.90;;;11.70;99.90;;;;;;5052013;28;20021;-75
2023/04/24 04:04:50;;;;;;;1999.90;999.90;;;11.70;99.90;;;;;;5052329;28;20043;-70
2023/04/24 04:07:15;;;;;;;1999.90;999.90;;;11.80;99.90;;;;;;5052862;28;20143;-75
2023/04/24 04:09:41;;;;;;;1999.90;999.90;;;11.80;99.90;;;;;;5052792;28;20515;-75
2023/04/24 04:12:06;;;;;;;1999.90;999.90;;;11.80;99.90;;;;;;5052631;28;20119;-71
2023/04/24 04:14:32;;;;;;;1999.90;999.90;;;11.80;99.90;;;;;;5052752;28;20029;-71
2023/04/24 04:16:58;;;;;;;1999.90;999.90;;;11.80;99.90;;;;;;5051941;28;20434;-70
2023/04/24 04:19:23;;;;;;;1999.90;999.90;;;11.80;99.90;;;;;;5052113;28;20067;-75
2023/04/24 04:21:53;;;;;;;1999.90;999.90;;;11.70;99.90;;;;;;5051922;28;20041;-70
2023/04/24 04:24:20;;;;;;;1999.90;999.90;;;11.70;99.90;;;;;;5052414;28;20071;-71
2023/04/24 04:26:46;;;;;;;1999.90;999.90;;;11.70;99.90;;;;;;5052499;28;20104;-70
2023/04/24 04:29:13;;;;;;;1999.90;999.90;;;11.60;99.90;;;;;;5065100;28;20029;-75
2023/04/24 04:31:39;;;;;;;1999.90;999.90;;;11.60;99.90;;;;;;5072391;28;20024;-76
2023/04/24 04:34:05;;;;;;;1999.90;999.90;;;11.50;99.90;;;;;;5072390;28;20545;-71
2023/04/24 04:36:31;;;;;;;1999.90;999.90;;;11.50;99.90;;;;;;5072279;28;20029;-71
2023/04/24 04:38:59;;;;;;;1999.90;999.90;;;11.50;99.90;;;;;;5072432;28;20024;-76
2023/04/24 04:41:24;;;;;;;1999.90;999.90;;;11.50;99.90;;;;;;5072216;28;20027;-75
2023/04/24 04:43:50;;;;;;;1999.90;999.90;;;11.50;99.90;;;;;;5072224;28;20050;-71
2023/04/24 04:46:16;;;;;;;1999.90;999.90;;;11.50;99.90;;;;;;5075017;28;20407;-75
2023/04/24 04:48:42;;;;;;;1999.90;999.90;;;11.50;99.90;;;;;;5058745;28;20492;-71
2023/04/24 04:51:07;;;;;;;1999.90;999.90;;;11.50;99.90;;;;;;5055242;28;20135;-71
2023/04/24 04:53:33;;;;;;;1999.90;999.90;;;11.40;99.90;;;;;;5051041;28;20025;-76
2023/04/24 04:55:59;;;;;;;1999.90;999.90;;;11.40;99.90;;;;;;5055947;28;20040;-71
2023/04/24 04:58:25;;;;;;;1999.90;999.90;;;11.40;99.90;;;;;;5074316;28;20012;-71
2023/04/24 05:00:50;;;;;;;1999.90;999.90;;;11.40;99.90;;;;;;5075670;28;20047;-71
2023/04/24 05:03:16;;;;;;;1999.90;999.90;;;11.30;99.90;;;;;;5075524;28;20070;-71
2023/04/24 05:05:42;;;;;;;1999.90;999.90;;;11.30;99.90;;;;;;5075645;28;20543;-71
2023/04/24 05:08:08;;;;;;;1999.90;999.90;;;11.20;99.90;;;;;;5066462;28;20036;-71
2023/04/24 05:10:34;;;;;;;1999.90;999.90;;;11.20;99.90;;;;;;5055577;28;20417;-70
2023/04/24 05:13:00;;;;;;;1999.90;999.90;;;11.10;99.90;;;;;;5055428;28;20090;-70
2023/04/24 05:15:26;;;;;;;1999.90;999.90;;;11.10;99.90;;;;;;5055404;28;20021;-70
2023/04/24 05:17:52;;;;;;;1999.90;999.90;;;11.10;99.90;;;;;;5069923;28;20034;-75
2023/04/24 05:20:17;;;;;;;1999.90;999.90;;;11.00;99.90;;;;;;5075238;28;20032;-75
2023/04/24 05:22:43;;;;;;;1999.90;999.90;;;11.10;99.90;;;;;;5074348;28;20043;-75
2023/04/24 05:25:09;;;;;;;1999.90;999.90;;;11.00;99.90;;;;;;5068218;28;20025;-70
2023/04/24 05:27:35;;;;;;;1999.90;999.90;;;11.00;99.90;;;;;;5054954;28;20416;-71
2023/04/24 05:30:00;;;;;;;1999.90;999.90;;;10.90;99.90;;;;;;5054644;28;20028;-71
2023/04/24 05:32:26;;;;;;;1999.90;999.90;;;10.90;99.90;;;;;;5065132;28;20025;-76
2023/04/24 05:34:52;;;;;;;1999.90;999.90;;;10.90;99.90;;;;;;5066181;28;20025;-71
2023/04/24 05:37:18;;;;;;;1999.90;999.90;;;10.80;99.90;;;;;;5053513;28;20040;-76
2023/04/24 05:39:43;;;;;;;1999.90;999.90;;;10.90;99.90;;;;;;5054609;28;20024;-70
2023/04/24 05:42:09;;;;;;;1999.90;999.90;;;10.90;99.90;;;;;;5062038;28;20032;-70
2023/04/24 05:44:35;;;;;;;1999.90;999.90;;;10.90;99.90;;;;;;5036575;28;20032;-75
2023/04/24 05:47:01;;;;;;;1999.90;999.90;;;10.90;99.90;;;;;;5035566;28;20036;-70
2023/04/24 05:49:27;;;;;;;1999.90;999.90;;;11.00;99.90;;;;;;5050639;28;20107;-75
2023/04/24 05:51:52;;;;;;;1999.90;999.90;;;11.10;99.90;;;;;;5053717;28;20041;-71
2023/04/24 05:54:18;;;;;;;1999.90;999.90;;;11.20;99.90;;;;;;5053211;28;20025;-71
2023/04/24 05:56:44;;;;;;;1999.90;999.90;;;11.20;99.90;;;;;;5051495;28;20035;-75
2023/04/24 05:59:09;;;;;;;1999.90;999.90;;;11.20;99.90;;;;;;5035397;28;20052;-75
2023/04/24 06:01:35;;;;;;;1999.90;999.90;;;11.20;99.90;;;;;;5065636;28;20375;-71
2023/04/24 06:04:03;;;;;;;1999.90;999.90;;;11.20;99.90;;;;;;5054703;28;20391;-70
2023/04/24 06:06:29;;;;;;;1999.90;999.90;;;11.30;99.90;;;;;;5032950;28;20119;-71
2023/04/24 06:08:54;;;;;;;1999.90;999.90;;;11.40;99.90;;;;;;5054030;28;20116;-73
2023/04/24 06:11:20;;;;;;;1999.90;999.90;;;11.40;99.90;;;;;;5052095;28;20127;-72
2023/04/24 06:13:46;;;;;;;1999.90;999.90;;;11.50;99.90;;;;;;5052826;28;20087;-76
2023/04/24 06:16:11;;;;;;;1999.90;999.90;;;11.50;99.90;;;;;;5052240;28;20144;-76
2023/04/24 06:18:37;;;;;;;1999.90;999.90;;;11.50;99.90;;;;;;5058151;28;20068;-71
2023/04/24 06:21:03;;;;;;;1999.90;999.90;;;11.50;99.90;;;;;;5058504;28;20045;-70
2023/04/24 06:23:29;;;;;;;1999.90;999.90;;;11.60;99.90;;;;;;5052213;28;20370;-71
2023/04/24 06:25:54;;;;;;;1999.90;999.90;;;11.60;99.90;;;;;;5051667;28;20013;-71
2023/04/24 06:28:20;;;;;;;1999.90;999.90;;;11.80;99.90;;;;;;5050006;28;20090;-75
2023/04/24 06:30:46;;;;;;;1999.90;999.90;;;11.90;99.90;;;;;;5053444;28;20072;-71
2023/04/24 06:33:11;;;;;;;1999.90;999.90;;;12.00;99.90;;;;;;5051868;28;20041;-71
2023/04/24 06:35:37;;;;;;;1999.90;999.90;;;12.10;99.90;;;;;;5043639;28;20040;-71
2023/04/24 06:38:03;;;;;;;1999.90;999.90;;;12.30;99.90;;;;;;5032496;28;20033;-78
2023/04/24 06:40:29;;;;;;;1999.90;999.90;;;12.40;99.90;;;;;;5035517;28;20500;-77
2023/04/24 06:42:55;;;;;;;1999.90;999.90;;;12.60;99.90;;;;;;5052362;28;20033;-73
2023/04/24 06:45:21;;;;;;;1999.90;999.90;;;12.80;99.90;;;;;;5054302;28;20024;-73
2023/04/24 06:47:47;;;;;;;1999.90;999.90;;;12.90;99.90;;;;;;5050725;28;20399;-74
2023/04/24 06:50:12;;;;;;;1999.90;999.90;;;12.90;99.90;;;;;;5058149;28;20025;-74
2023/04/24 06:52:38;;;;;;;1999.90;999.90;;;12.80;99.90;;;;;;5046884;28;20479;-78
2023/04/24 06:55:04;;;;;;;1999.90;999.90;;;13.00;99.90;;;;;;5058439;28;20018;-78
2023/04/24 06:57:31;;;;;;;1999.90;999.90;;;13.30;99.90;;;;;;5065410;28;20090;-71
2023/04/24 06:59:56;;;;;;;1999.90;999.90;;;13.30;99.90;;;;;;5050168;28;20044;-70
2023/04/24 07:02:22;;;;;;;1999.90;999.90;;;13.20;99.90;;;;;;5051488;28;20061;-76
2023/04/24 07:04:48;;;;;;;1999.90;999.90;;;13.10;99.90;;;;;;5057892;28;20036;-76
2023/04/24 07:07:14;;;;;;;1999.90;999.90;;;13.10;99.90;;;;;;5063905;28;20037;-71
2023/04/24 07:09:44;;;;;;;1999.90;999.90;;;13.20;99.90;;;;;;5050156;28;20052;-66
2023/04/24 07:12:10;;;;;;;1999.90;999.90;;;13.30;99.90;;;;;;5057429;28;20036;-68
2023/04/24 07:14:39;;;;;;;1999.90;999.90;;;13.40;99.90;;;;;;5053462;28;20043;-66
2023/04/24 07:17:06;;;;;;;1999.90;999.90;;;13.50;99.90;;;;;;5050065;28;20036;-66
2023/04/24 07:19:33;;;;;;;1999.90;999.90;;;13.50;99.90;;;;;;5050892;28;20032;-66
2023/04/24 07:21:59;;;;;;;1999.90;999.90;;;13.80;99.90;;;;;;5058057;28;20035;-66
2023/04/24 07:24:25;;;;;;;1999.90;999.90;;;14.20;99.90;;;;;;5055686;28;20028;-66
2023/04/24 07:26:52;;;;;;;1999.90;999.90;;;14.10;99.90;;;;;;5051160;28;20033;-66
2023/04/24 07:29:18;;;;;;;1999.90;999.90;;;14.00;99.90;;;;;;5050819;28;20035;-66
2023/04/24 07:31:44;;;;;;;1999.90;999.90;;;14.00;99.90;;;;;;5060327;28;20067;-66
2023/04/24 07:34:09;;;;;;;1999.90;999.90;;;13.90;99.90;;;;;;5051186;28;20048;-66
2023/04/24 07:36:35;;;;;;;1999.90;999.90;;;13.90;99.90;;;;;;5051520;28;20040;-66
2023/04/24 07:39:01;;;;;;;1999.90;999.90;;;13.90;99.90;;;;;;5055099;28;20360;-66
2023/04/24 07:41:27;;;;;;;1999.90;999.90;;;13.90;99.90;;;;;;5046390;28;20032;-66
2023/04/24 07:43:53;;;;;;;1999.90;999.90;;;14.10;99.90;;;;;;5048169;28;20025;-71
2023/04/24 07:46:23;;;;;;;1999.90;999.90;;;14.50;99.90;;;;;;5050830;28;20094;-76
2023/04/24 07:48:48;;;;;;;1999.90;999.90;;;14.70;99.90;;;;;;5067171;28;20515;-71
2023/04/24 07:51:14;;;;;;;1999.90;999.90;;;14.60;99.90;;;;;;5048568;28;20049;-71
2023/04/24 07:53:41;;;;;;;1999.90;999.90;;;15.00;99.90;;;;;;5050744;28;20060;-71
2023/04/24 07:56:07;;;;;;;1999.90;999.90;;;15.00;99.90;;;;;;5049488;28;20041;-71
2023/04/24 07:58:33;;;;;;;1999.90;999.90;;;15.00;99.90;;;;;;5051188;28;20045;-76
2023/04/24 08:00:59;;;;;;;1999.90;999.90;;;15.30;99.90;;;;;;5059891;28;20063;-71
2023/04/24 08:03:24;;;;;;;1999.90;999.90;;;15.50;99.90;;;;;;5062469;28;20053;-75
2023/04/24 08:05:50;;;;;;;1999.90;999.90;;;14.90;99.90;;;;;;5070259;28;20513;-71
2023/04/24 08:08:16;;;;;;;1999.90;999.90;;;14.60;99.90;;;;;;5054087;28;20040;-75
2023/04/24 08:10:45;;;;;;;1999.90;999.90;;;14.50;99.90;;;;;;5059975;28;20033;-75
2023/04/24 08:13:11;;;;;;;1999.90;999.90;;;14.40;99.90;;;;;;5050232;28;20037;-70
2023/04/24 08:15:37;;;;;;;1999.90;999.90;;;14.70;99.90;;;;;;5050548;28;20449;-70
2023/04/24 08:18:02;;;;;;;1999.90;999.90;;;14.90;99.90;;;;;;5049914;28;20038;-74
2023/04/24 08:20:28;;;;;;;1999.90;999.90;;;14.70;99.90;;;;;;5061931;28;20457;-71
2023/04/24 08:22:54;;;;;;;1999.90;999.90;;;14.90;99.90;;;;;;5056668;28;20464;-75
2023/04/24 08:25:22;;;;;;;1999.90;999.90;;;14.90;99.90;;;;;;5060018;28;20111;-75
2023/04/24 08:27:48;;;;;;;1999.90;999.90;;;14.70;99.90;;;;;;5065287;28;20425;-70
2023/04/24 08:30:14;;;;;;;1999.90;999.90;;;14.80;99.90;;;;;;5059625;28;20119;-70
2023/04/24 08:32:40;;;;;;;1999.90;999.90;;;14.70;99.90;;;;;;5054706;28;20021;-70
2023/04/24 08:35:09;;;;;;;1999.90;999.90;;;15.00;99.90;;;;;;5031462;28;20087;-75
2023/04/24 08:37:35;;;;;;;1999.90;999.90;;;14.70;99.90;;;;;;5035669;28;20068;-70
2023/04/24 08:40:13;;;;;;;1999.90;999.90;;;14.80;99.90;;;;;;5052216;28;20029;-75
2023/04/24 08:42:41;;;;;;;1999.90;999.90;;;15.50;99.90;;;;;;5037338;28;20099;-70
2023/04/24 08:45:08;;;;;;;1999.90;999.90;;;15.30;99.90;;;;;;5049354;28;20064;-71
2023/04/24 08:47:35;;;;;;;1999.90;999.90;;;15.50;99.90;;;;;;5052653;28;20100;-75
2023/04/24 08:50:12;;;;;;;1999.90;999.90;;;16.70;99.90;;;;;;5056926;28;20040;-75
2023/04/24 08:52:38;;;;;;;1999.90;999.90;;;16.30;99.90;;;;;;5059370;28;20037;-74
2023/04/24 08:55:05;;;;;;;1999.90;999.90;;;17.00;99.90;;;;;;5055363;28;20373;-75
2023/04/24 08:57:32;;;;;;;1999.90;999.90;;;16.10;99.90;;;;;;5061274;28;20021;-70
2023/04/24 08:59:58;;;;;;;1999.90;999.90;;;15.60;99.90;;;;;;5062213;28;20036;-75
2023/04/24 09:02:25;;;;;;;1999.90;999.90;;;16.60;99.90;;;;;;5041462;28;20044;-74
2023/04/24 09:04:52;;;;;;;1999.90;999.90;;;16.10;99.90;;;;;;5071158;28;20024;-74
2023/04/24 09:07:19;;;;;;;1999.90;999.90;;;15.90;99.90;;;;;;5059111;28;20032;-70
2023/04/24 09:09:45;;;;;;;1999.90;999.90;;;16.30;99.90;;;;;;5066119;28;20499;-74
2023/04/24 09:12:11;;;;;;;1999.90;999.90;;;16.80;99.90;;;;;;5051637;28;20110;-75
2023/04/24 09:14:42;;;;;;;1999.90;999.90;;;17.30;99.90;;;;;;5062608;28;20059;-76
2023/04/24 09:17:08;;;;;;;1999.90;999.90;;;17.70;99.90;;;;;;5060935;28;20124;-75
2023/04/24 09:19:34;;;;;;;1999.90;999.90;;;18.00;99.90;;;;;;5058540;28;20103;-76
2023/04/24 09:22:04;;;;;;;1999.90;999.90;;;17.20;99.90;;;;;;5059304;28;20517;-70
2023/04/24 09:24:29;;;;;;;1999.90;999.90;;;17.80;99.90;;;;;;5061208;28;20071;-71
2023/04/24 09:26:58;;;;;;;1999.90;999.90;;;17.40;99.90;;;;;;5052307;28;20142;-75
2023/04/24 09:29:25;;;;;;;1999.90;999.90;;;15.40;99.90;;;;;;5036331;28;20152;-75
2023/04/24 09:31:50;;;;;;;1999.90;999.90;;;14.70;99.90;;;;;;5061009;28;20523;-76
2023/04/24 09:34:22;;;;;;;1999.90;999.90;;;14.50;99.90;;;;;;5058933;28;20112;-71
2023/04/24 09:36:48;;;;;;;1999.90;999.90;;;14.70;99.90;;;;;;5067511;28;20115;-70
2023/04/24 09:39:26;;;;;;;1999.90;999.90;;;15.70;99.90;;;;;;5059778;28;20832;-77
2023/04/24 09:41:59;;;;;;;1999.90;999.90;;;15.70;99.90;;;;;;5040779;28;20036;-71
2023/04/24 09:44:27;;;;;;;1999.90;999.90;;;16.50;99.90;;;;;;5051695;28;20040;-77
2023/04/24 09:46:58;;;;;;;1999.90;999.90;;;16.00;99.90;;;;;;5041412;28;20029;-71
2023/04/24 09:49:28;;;;;;;1999.90;999.90;;;15.40;99.90;;;;;;5048479;28;20029;-70
2023/04/24 09:52:08;;;;;;;1999.90;999.90;;;15.20;99.90;;;;;;5042702;28;20057;-76
2023/04/24 09:54:36;;;;;;;1999.90;999.90;;;14.90;99.90;;;;;;5051206;28;21439;-74
2023/04/24 09:57:02;;;;;;;1999.90;999.90;;;14.90;99.90;;;;;;5050742;28;20388;-77
2023/04/24 09:59:28;;;;;;;1999.90;999.90;;;14.80;99.90;;;;;;5051488;28;20029;-70
2023/04/24 10:01:55;;;;;;;1999.90;999.90;;;14.60;99.90;;;;;;5068706;28;20483;-71
2023/04/24 10:04:22;;;;;;;1999.90;999.90;;;14.40;99.90;;;;;;5053317;28;20033;-77
2023/04/24 10:06:49;;;;;;;1999.90;999.90;;;14.30;99.90;;;;;;5051100;28;20033;-76
2023/04/24 10:09:15;;;;;;;1999.90;999.90;;;14.20;99.90;;;;;;5058714;28;20048;-76
2023/04/24 10:11:46;;;;;;;1999.90;999.90;;;14.30;99.90;;;;;;5059211;28;20021;-77
2023/04/24 10:14:14;;;;;;;1999.90;999.90;;;14.40;99.90;;;;;;5057462;28;20445;-70
2023/04/24 10:16:41;;;;;;;1999.90;999.90;;;14.50;99.90;;;;;;5071006;28;20036;-71
2023/04/24 10:19:07;;;;;;;1999.90;999.90;;;14.70;99.90;;;;;;5061987;28;20081;-78
2023/04/24 10:21:35;;;;;;;1999.90;999.90;;;14.70;99.90;;;;;;5039977;28;20016;-76
2023/04/24 10:24:03;;;;;;;1999.90;999.90;;;14.60;99.90;;;;;;5063093;28;20375;-76
2023/04/24 10:26:29;;;;;;;1999.90;999.90;;;14.70;99.90;;;;;;5059042;28;20021;-70
2023/04/24 10:28:58;;;;;;;1999.90;999.90;;;14.80;99.90;;;;;;5051201;28;20063;-70
2023/04/24 10:31:24;;;;;;;1999.90;999.90;;;16.10;99.90;;;;;;5059756;28;20025;-71
2023/04/24 10:33:53;;;;;;;1999.90;999.90;;;19.50;99.90;;;;;;5052902;28;20476;-78
2023/04/24 10:36:23;;;;;;;1999.90;999.90;;;19.70;99.90;;;;;;5051667;28;20065;-71
2023/04/24 10:38:49;;;;;;;1999.90;999.90;;;20.00;99.90;;;;;;5050006;28;20553;-72
2023/04/24 10:41:22;;;;;;;1999.90;999.90;;;18.90;99.90;;;;;;5052918;28;20025;-72
2023/04/24 10:44:03;;;;;;;1999.90;999.90;;;18.60;99.90;;;;;;5052648;28;20074;-72
2023/04/24 10:46:30;;;;;;;1999.90;999.90;;;19.50;99.90;;;;;;5050053;28;20033;-71
2023/04/24 10:48:58;;;;;;;1999.90;999.90;;;19.80;99.90;;;;;;5051879;28;20037;-71
2023/04/24 10:51:25;;;;;;;1999.90;999.90;;;19.40;99.90;;;;;;5052665;28;20128;-72
2023/04/24 10:53:51;;;;;;;1999.90;999.90;;;19.00;99.90;;;;;;5057784;28;20078;-71
2023/04/24 10:56:17;;;;;;;1999.90;999.90;;;17.40;99.90;;;;;;5052387;28;20043;-77
2023/04/24 10:58:49;;;;;;;1999.90;999.90;;;16.90;99.90;;;;;;5053359;28;20052;-78
2023/04/24 11:01:32;;;;;;;1999.90;999.90;;;16.80;99.90;;;;;;5053042;28;20025;-77
2023/04/24 11:04:03;;;;;;;1999.90;999.90;;;16.00;99.90;;;;;;5034361;28;20024;-71
2023/04/24 11:06:36;;;;;;;1999.90;999.90;;;16.10;99.90;;;;;;5041022;28;20036;-70
2023/04/24 11:09:15;;;;;;;1999.90;999.90;;;16.30;99.90;;;;;;5050981;28;20561;-70
2023/04/24 11:11:46;;;;;;;1999.90;999.90;;;15.80;99.90;;;;;;5051820;28;20032;-76
2023/04/24 11:14:15;;;;;;;1999.90;999.90;;;15.00;99.90;;;;;;5041353;28;20055;-76
2023/04/24 11:16:44;;;;;;;1999.90;999.90;;;14.80;99.90;;;;;;5036089;28;20503;-76
2023/04/24 11:19:23;;;;;;;1999.90;999.90;;;15.20;99.90;;;;;;5049651;28;20032;-70
2023/04/24 11:22:01;;;;;;;1999.90;999.90;;;15.50;99.90;;;;;;5046454;28;20021;-75
2023/04/24 11:24:27;;;;;;;1999.90;999.90;;;15.80;99.90;;;;;;5033975;28;20029;-70
2023/04/24 11:27:03;;;;;;;1999.90;999.90;;;16.90;99.90;;;;;;5051697;28;20029;-78
2023/04/24 11:29:48;;;;;;;1999.90;999.90;;;18.50;99.90;;;;;;5057440;28;20037;-76
2023/04/24 11:32:32;;;;;;;1999.90;999.90;;;18.00;99.90;;;;;;5047839;28;20515;-71
2023/04/24 11:35:00;;;;;;;1999.90;999.90;;;17.70;99.90;;;;;;5051810;28;20037;-70
2023/04/24 11:37:33;;;;;;;1999.90;999.90;;;18.80;99.90;;;;;;5051202;28;20017;-78
2023/04/24 11:40:02;;;;;;;1999.90;999.90;;;17.40;99.90;;;;;;5063555;28;20035;-77
2023/04/24 11:42:28;;;;;;;1999.90;999.90;;;16.90;99.90;;;;;;5065034;28;20163;-77
2023/04/24 11:44:55;;;;;;;1999.90;999.90;;;17.20;99.90;;;;;;5044470;28;20400;-77
2023/04/24 11:47:33;;;;;;;1999.90;999.90;;;17.60;99.90;;;;;;5049137;28;20032;-71
2023/04/24 11:49:59;;;;;;;1999.90;999.90;;;17.50;99.90;;;;;;5044061;28;20033;-72
2023/04/24 11:52:25;;;;;;;1999.90;999.90;;;16.90;99.90;;;;;;5054777;28;20044;-73
2023/04/24 11:54:51;;;;;;;1999.90;999.90;;;16.80;99.90;;;;;;5054195;28;20020;-80
2023/04/24 11:57:20;;;;;;;1999.90;999.90;;;16.80;99.90;;;;;;5054473;28;20506;-72